Washington, District of Columbia
Traffic Map
Current Weather Conditions
Washington, District of Columbia
Overcast
Overcast

Feels Like: 7°
Wind Chill: Ceiling: 1000
Heat Index: Visibility: 10mi
Dew Point: Wind: 10mph
Humidity: 90% Direction: 90° (E)
Pressure: 30.3in Gusts: 0mph
Raw Report DataKDCA 261852Z 09009KT 10SM OVC010 09/08 A3030 RMK AO2 SLP259 T00940078
Traffic Incident Summary
Active as of:
Severity:
Category:
InformationThere was an issue retrieving the traffic information for this location. Please try a different location or try again shortly.
Advertisements
Track Severe Weather on mobile